createdAt,value
2022-08-31T00:00:40.864Z,16.16
2022-08-31T00:08:17.069Z,16.13
2022-08-31T00:15:52.128Z,16.04
2022-08-31T00:23:27.054Z,15.90
2022-08-31T00:31:00.819Z,15.75
2022-08-31T00:38:36.355Z,15.67
2022-08-31T00:46:12.529Z,15.64
2022-08-31T00:53:49.701Z,15.56
2022-08-31T01:01:25.027Z,15.48
2022-08-31T01:09:02.446Z,15.43
2022-08-31T01:16:40.325Z,15.36
2022-08-31T01:24:16.955Z,15.32
2022-08-31T01:31:50.838Z,15.24
2022-08-31T01:39:26.314Z,15.17
2022-08-31T01:47:00.446Z,15.06
2022-08-31T01:54:35.836Z,14.91
2022-08-31T02:02:09.926Z,14.87
2022-08-31T02:09:45.060Z,14.79
2022-08-31T02:17:18.886Z,14.72
2022-08-31T02:24:53.996Z,14.61
2022-08-31T02:32:27.595Z,14.57
2022-08-31T02:40:03.155Z,14.59
2022-08-31T02:47:38.926Z,14.58
2022-08-31T02:55:14.514Z,14.62
2022-08-31T03:02:48.683Z,14.68
2022-08-31T03:10:26.269Z,14.69
2022-08-31T03:18:00.114Z,14.74
2022-08-31T03:25:35.365Z,14.77
2022-08-31T03:33:12.151Z,14.79
2022-08-31T03:40:47.942Z,14.87
2022-08-31T03:48:21.821Z,14.87
2022-08-31T03:56:01.876Z,14.89
2022-08-31T04:03:37.287Z,14.94
2022-08-31T04:11:15.402Z,14.96
2022-08-31T04:18:49.420Z,14.97
2022-08-31T04:26:27.067Z,14.95
2022-08-31T04:34:00.967Z,14.93
2022-08-31T04:41:39.685Z,14.93
2022-08-31T04:49:15.185Z,14.93
2022-08-31T04:56:50.338Z,14.94
2022-08-31T05:04:24.818Z,14.92
2022-08-31T05:11:59.941Z,14.90
2022-08-31T05:19:35.992Z,14.90
2022-08-31T05:27:14.655Z,14.94
2022-08-31T05:34:48.503Z,14.97
2022-08-31T05:42:23.680Z,15.04
2022-08-31T05:49:57.474Z,15.10
2022-08-31T05:57:32.660Z,15.20
2022-08-31T06:05:06.914Z,15.34
2022-08-31T06:12:42.566Z,15.49
2022-08-31T06:20:18.197Z,15.66
2022-08-31T06:27:56.544Z,15.67
2022-08-31T06:35:30.413Z,15.79
2022-08-31T06:43:05.651Z,16.02
2022-08-31T06:50:41.952Z,16.34
2022-08-31T06:58:17.216Z,16.60
2022-08-31T07:05:53.056Z,16.76
2022-08-31T07:13:29.112Z,17.02
2022-08-31T07:21:11.336Z,17.25
2022-08-31T07:28:52.884Z,17.38
2022-08-31T07:36:27.707Z,17.63
2022-08-31T07:44:02.896Z,18.02
2022-08-31T07:51:37.020Z,17.86
2022-08-31T07:59:15.083Z,18.37
2022-08-31T08:06:49.050Z,18.70
2022-08-31T08:14:25.247Z,19.23
2022-08-31T08:22:04.825Z,19.10
2022-08-31T08:29:39.894Z,20.07
2022-08-31T08:37:14.422Z,19.89
2022-08-31T08:44:49.904Z,19.72
2022-08-31T08:52:28.493Z,20.14
2022-08-31T09:00:10.783Z,20.33
2022-08-31T09:08:10.333Z,20.85
2022-08-31T09:16:04.548Z,21.04
2022-08-31T09:23:48.600Z,20.60
2022-08-31T09:31:39.709Z,21.18
2022-08-31T09:39:19.218Z,20.84
2022-08-31T09:46:59.411Z,21.11
2022-08-31T09:55:05.244Z,20.98
2022-08-31T10:02:40.497Z,20.70
2022-08-31T10:10:29.935Z,20.72
2022-08-31T10:18:14.162Z,20.72
2022-08-31T10:25:54.643Z,20.59
2022-08-31T10:33:50.396Z,20.29
2022-08-31T10:41:28.976Z,20.21
2022-08-31T10:49:06.175Z,20.26
2022-08-31T10:56:50.733Z,20.43
2022-08-31T11:04:43.154Z,20.45
2022-08-31T11:12:22.576Z,20.46
2022-08-31T11:20:25.967Z,20.47
2022-08-31T11:28:07.188Z,20.37
2022-08-31T11:36:06.694Z,20.41
2022-08-31T11:43:53.865Z,20.41
2022-08-31T11:51:37.369Z,20.44
2022-08-31T11:59:25.204Z,20.62
2022-08-31T12:07:04.553Z,20.95
2022-08-31T12:14:51.178Z,20.75
2022-08-31T12:23:07.816Z,20.72
2022-08-31T12:30:50.721Z,20.89
2022-08-31T12:38:27.354Z,21.03
2022-08-31T12:46:26.702Z,21.20
2022-08-31T12:54:17.284Z,21.13
2022-08-31T13:01:52.419Z,21.14
2022-08-31T13:09:31.588Z,21.08
2022-08-31T13:17:11.636Z,21.01
2022-08-31T13:24:54.071Z,21.19
2022-08-31T13:32:34.025Z,21.34
2022-08-31T13:40:13.709Z,21.50
2022-08-31T13:47:57.648Z,21.39
2022-08-31T13:55:37.437Z,21.25
2022-08-31T14:03:32.065Z,21.32
2022-08-31T14:11:14.581Z,21.38
2022-08-31T14:18:55.315Z,21.28
2022-08-31T14:26:32.936Z,21.16
2022-08-31T14:34:25.967Z,21.16
2022-08-31T14:42:06.057Z,21.30
2022-08-31T14:49:45.447Z,21.63
2022-08-31T14:57:25.102Z,21.37
2022-08-31T15:05:06.664Z,21.29
2022-08-31T15:12:42.068Z,21.24
2022-08-31T15:20:16.621Z,21.17
2022-08-31T15:27:51.979Z,21.13
2022-08-31T15:35:30.336Z,21.15
2022-08-31T15:43:09.550Z,21.42
2022-08-31T15:50:52.525Z,21.37
2022-08-31T15:58:30.316Z,21.48
2022-08-31T16:06:05.493Z,21.77
2022-08-31T16:13:49.709Z,21.76
2022-08-31T16:21:24.365Z,22.22
2022-08-31T16:29:00.848Z,22.22
2022-08-31T16:36:34.792Z,21.84
2022-08-31T16:44:19.618Z,21.73
2022-08-31T16:51:54.471Z,21.68
2022-08-31T16:59:30.865Z,21.37
2022-08-31T17:07:04.786Z,21.05
2022-08-31T17:14:46.626Z,20.97
2022-08-31T17:22:26.915Z,20.84
2022-08-31T17:30:08.156Z,20.58
2022-08-31T17:37:42.152Z,20.42
2022-08-31T17:45:17.505Z,20.22
2022-08-31T17:52:51.456Z,20.08
2022-08-31T18:00:28.370Z,19.92
2022-08-31T18:08:02.138Z,19.77
2022-08-31T18:15:37.341Z,19.64
2022-08-31T18:23:11.772Z,19.48
2022-08-31T18:30:47.465Z,19.34
2022-08-31T18:38:21.399Z,19.25
2022-08-31T18:45:56.623Z,19.15
2022-08-31T18:53:32.504Z,19.02
2022-08-31T19:01:11.311Z,18.89
2022-08-31T19:08:45.601Z,18.79
2022-08-31T19:16:23.455Z,18.68
2022-08-31T19:23:59.328Z,18.56
2022-08-31T19:31:37.191Z,18.49
2022-08-31T19:39:12.899Z,18.36
2022-08-31T19:46:55.627Z,18.27
2022-08-31T19:54:33.422Z,18.16
2022-08-31T20:02:08.835Z,18.05
2022-08-31T20:09:42.685Z,17.92
2022-08-31T20:17:20.019Z,17.84
2022-08-31T20:24:53.883Z,17.75
2022-08-31T20:32:29.108Z,17.65
2022-08-31T20:40:03.488Z,17.58
2022-08-31T20:47:57.536Z,17.52
2022-08-31T20:55:31.517Z,17.39
2022-08-31T21:03:06.716Z,17.32
2022-08-31T21:10:41.133Z,17.25
2022-08-31T21:18:17.851Z,17.21
2022-08-31T21:25:52.003Z,17.12
2022-08-31T21:33:27.459Z,17.09
2022-08-31T21:41:01.640Z,17.02
2022-08-31T21:48:42.696Z,16.98
2022-08-31T21:56:17.643Z,16.92
2022-08-31T22:03:57.541Z,16.85
2022-08-31T22:11:36.164Z,16.78
2022-08-31T22:19:12.733Z,16.79
2022-08-31T22:26:49.043Z,16.80
2022-08-31T22:34:25.490Z,16.76
2022-08-31T22:42:01.341Z,16.77
2022-08-31T22:49:36.671Z,16.83
2022-08-31T22:57:10.513Z,16.83
2022-08-31T23:04:46.295Z,16.84
2022-08-31T23:12:20.199Z,16.87
2022-08-31T23:19:55.320Z,16.84
2022-08-31T23:27:30.135Z,16.86
2022-08-31T23:35:07.181Z,16.82
2022-08-31T23:42:41.904Z,16.74
2022-08-31T23:50:17.040Z,16.65
2022-08-31T23:57:51.755Z,16.69
